Time;durP1;ratioP1;P1;durP2;ratioP2;P2;SDS_P1;SDS_P2;PMS_P1;PMS_P2;Temp;Humidity;BMP_temperature;BMP_pressure;BME280_temperature;BME280_humidity;BME280_pressure;Samples;Min_cycle;Max_cycle;Signal;HPM_P1;HPM_P2
2023/05/24 00:00:41;;;;;;;5.93;2.00;;;16.00;95.30;;;;;;5091555;28;20029;-89
2023/05/24 00:03:08;;;;;;;8.05;2.58;;;16.00;95.20;;;;;;5074400;28;20146;-89
2023/05/24 00:05:36;;;;;;;7.47;2.45;;;16.00;95.20;;;;;;5074678;28;20555;-91
2023/05/24 00:08:02;;;;;;;8.10;2.15;;;16.00;95.30;;;;;;5074988;28;20050;-91
2023/05/24 00:10:28;;;;;;;6.93;2.10;;;16.00;95.30;;;;;;5075145;28;20084;-91
2023/05/24 00:12:53;;;;;;;4.88;2.00;;;16.00;95.40;;;;;;5075342;28;20113;-90
2023/05/24 00:15:19;;;;;;;12.25;2.45;;;16.00;95.30;;;;;;5074312;28;20398;-90
2023/05/24 00:17:45;;;;;;;5.63;2.58;;;16.00;95.50;;;;;;5074247;28;20043;-87
2023/05/24 00:20:12;;;;;;;5.75;2.17;;;16.00;95.30;;;;;;5075213;28;20447;-89
2023/05/24 00:22:38;;;;;;;4.75;2.20;;;16.00;95.10;;;;;;5075179;28;20027;-87
2023/05/24 00:25:05;;;;;;;5.80;2.30;;;16.00;95.00;;;;;;5075675;28;20033;-87
2023/05/24 00:27:30;;;;;;;6.80;2.63;;;15.90;94.90;;;;;;5075022;28;20024;-88
2023/05/24 00:29:56;;;;;;;4.90;2.10;;;15.90;95.00;;;;;;5074435;28;20483;-87
2023/05/24 00:32:22;;;;;;;7.35;2.20;;;15.90;95.10;;;;;;5073301;28;20488;-87
2023/05/24 00:34:47;;;;;;;7.28;2.17;;;15.90;95.20;;;;;;5090665;28;20488;-87
2023/05/24 00:37:13;;;;;;;5.00;1.92;;;15.90;95.10;;;;;;5073749;28;20032;-90
2023/05/24 00:39:40;;;;;;;6.13;2.22;;;15.90;95.30;;;;;;5073979;28;20024;-87
2023/05/24 00:42:06;;;;;;;6.70;2.40;;;15.90;95.40;;;;;;5073994;28;20564;-87
2023/05/24 00:44:32;;;;;;;5.38;2.10;;;15.80;95.50;;;;;;5074192;28;20366;-87
2023/05/24 00:46:58;;;;;;;6.82;2.17;;;15.80;96.00;;;;;;5073854;28;20462;-87
2023/05/24 00:49:24;;;;;;;4.88;2.05;;;15.80;96.00;;;;;;5073423;28;20507;-88
2023/05/24 00:51:51;;;;;;;5.25;2.15;;;15.70;96.20;;;;;;5073537;28;20107;-88
2023/05/24 00:54:17;;;;;;;5.68;2.05;;;15.70;96.60;;;;;;5073531;28;20028;-89
2023/05/24 00:56:43;;;;;;;7.28;2.42;;;15.70;96.60;;;;;;5074547;28;20059;-87
2023/05/24 00:59:08;;;;;;;5.05;2.15;;;15.70;96.50;;;;;;5073515;28;20219;-87
2023/05/24 01:01:34;;;;;;;6.65;2.40;;;15.60;96.70;;;;;;5072827;28;20127;-88
2023/05/24 01:04:00;;;;;;;4.93;2.30;;;15.60;96.50;;;;;;5074796;28;20060;-87
2023/05/24 01:06:27;;;;;;;6.43;2.67;;;15.60;96.70;;;;;;5074269;28;20346;-88
2023/05/24 01:09:07;;;;;;;7.10;2.53;;;15.60;96.80;;;;;;5090795;28;20028;-88
2023/05/24 01:11:47;;;;;;;7.20;2.50;;;15.50;96.90;;;;;;5074350;28;20032;-88
2023/05/24 01:14:28;;;;;;;6.43;2.20;;;15.50;97.00;;;;;;5073450;28;20123;-87
2023/05/24 01:17:13;;;;;;;5.43;2.28;;;15.50;96.90;;;;;;5073070;28;20024;-88
2023/05/24 01:19:50;;;;;;;6.65;2.28;;;15.50;97.10;;;;;;5072918;28;20033;-89
2023/05/24 01:22:49;;;;;;;6.43;2.70;;;15.50;97.00;;;;;;5074935;28;20031;-89
2023/05/24 01:25:42;;;;;;;5.18;2.25;;;15.50;97.30;;;;;;5077936;28;20041;-89
2023/05/24 01:28:10;;;;;;;7.57;2.50;;;15.30;97.50;;;;;;5075916;28;20035;-89
2023/05/24 01:30:36;;;;;;;7.47;2.50;;;15.20;97.60;;;;;;5074633;28;20476;-88
2023/05/24 01:33:02;;;;;;;8.82;2.70;;;15.30;97.50;;;;;;5076203;28;20020;-89
2023/05/24 01:35:28;;;;;;;8.82;2.65;;;15.30;97.50;;;;;;5073863;28;20181;-90
2023/05/24 01:37:53;;;;;;;7.30;2.75;;;15.30;97.40;;;;;;5074364;28;20029;-89
2023/05/24 01:40:19;;;;;;;7.55;2.78;;;15.20;97.60;;;;;;5073819;28;20111;-88
2023/05/24 01:42:51;;;;;;;9.23;2.50;;;15.20;97.70;;;;;;5073447;28;20025;-90
2023/05/24 01:45:24;;;;;;;6.57;2.47;;;15.10;97.80;;;;;;5072852;28;20053;-88
2023/05/24 01:48:17;;;;;;;7.47;2.67;;;15.10;97.80;;;;;;5074244;28;20488;-85
2023/05/24 01:50:56;;;;;;;8.10;2.53;;;15.10;97.60;;;;;;5074368;28;20021;-85
2023/05/24 01:53:28;;;;;;;8.25;2.67;;;15.10;97.80;;;;;;5072478;28;20051;-86
2023/05/24 01:55:56;;;;;;;6.47;2.55;;;15.10;97.70;;;;;;5074012;28;20041;-85
2023/05/24 01:58:24;;;;;;;10.82;3.03;;;15.00;97.70;;;;;;5073049;28;20066;-86
2023/05/24 02:00:51;;;;;;;4.82;2.47;;;15.00;97.80;;;;;;5072940;28;20024;-86
2023/05/24 02:03:17;;;;;;;8.10;2.50;;;14.90;97.80;;;;;;5072849;28;20028;-86
2023/05/24 02:05:44;;;;;;;7.38;2.58;;;14.90;97.90;;;;;;5072267;28;20105;-85
2023/05/24 02:08:11;;;;;;;7.75;2.20;;;14.80;98.20;;;;;;5074003;28;20036;-85
2023/05/24 02:10:38;;;;;;;6.70;2.40;;;14.80;98.20;;;;;;5072814;28;20035;-88
2023/05/24 02:13:04;;;;;;;8.48;2.50;;;14.70;98.10;;;;;;5073137;28;20107;-89
2023/05/24 02:15:30;;;;;;;5.32;2.10;;;14.80;98.00;;;;;;5072315;28;20029;-87
2023/05/24 02:17:56;;;;;;;8.30;2.83;;;14.70;97.70;;;;;;5073808;28;20127;-87
2023/05/24 02:20:23;;;;;;;11.07;2.65;;;14.70;97.70;;;;;;5072486;28;20092;-89
2023/05/24 02:22:49;;;;;;;10.95;2.88;;;14.70;97.90;;;;;;5073687;28;20033;-89
2023/05/24 02:25:15;;;;;;;10.18;2.50;;;14.60;97.60;;;;;;5073893;28;20032;-90
2023/05/24 02:27:40;;;;;;;6.25;2.33;;;14.60;97.60;;;;;;5072411;28;20613;-89
2023/05/24 02:30:07;;;;;;;12.80;2.67;;;14.60;97.40;;;;;;5072559;28;20036;-89
2023/05/24 02:32:36;;;;;;;5.65;2.25;;;14.60;97.20;;;;;;5072687;28;20025;-86
2023/05/24 02:35:02;;;;;;;6.95;2.10;;;14.60;97.30;;;;;;5072579;28;20408;-86
2023/05/24 02:37:27;;;;;;;6.35;2.47;;;14.50;97.30;;;;;;5074056;28;20032;-87
2023/05/24 02:39:53;;;;;;;13.73;2.47;;;14.50;97.30;;;;;;5076692;28;20399;-89
2023/05/24 02:42:18;;;;;;;8.88;2.35;;;14.50;97.30;;;;;;5077490;28;20125;-90
2023/05/24 02:44:47;;;;;;;8.57;2.30;;;14.40;97.00;;;;;;5075499;28;20028;-89
2023/05/24 02:47:13;;;;;;;6.65;2.20;;;14.40;97.10;;;;;;5077162;28;20047;-86
2023/05/24 02:49:39;;;;;;;7.82;2.20;;;14.40;97.00;;;;;;5075865;28;20520;-87
2023/05/24 02:52:05;;;;;;;9.20;2.55;;;14.40;97.30;;;;;;5067493;28;20175;-87
2023/05/24 02:54:30;;;;;;;9.38;2.22;;;14.40;97.00;;;;;;5057164;28;20033;-87
2023/05/24 02:56:56;;;;;;;8.70;2.22;;;14.40;96.80;;;;;;5057411;28;20496;-86
2023/05/24 02:59:23;;;;;;;7.60;2.25;;;14.40;97.10;;;;;;5055749;28;20033;-89
2023/05/24 03:01:49;;;;;;;6.70;2.20;;;14.40;97.10;;;;;;5055655;28;20049;-87
2023/05/24 03:04:14;;;;;;;6.35;2.05;;;14.40;97.10;;;;;;5056029;28;20074;-87
2023/05/24 03:06:40;;;;;;;12.38;3.10;;;14.40;97.10;;;;;;5056982;28;20033;-87
2023/05/24 03:09:06;;;;;;;8.52;2.50;;;14.40;96.90;;;;;;5057190;28;20021;-87
2023/05/24 03:11:31;;;;;;;5.93;2.47;;;14.30;97.00;;;;;;5055794;28;20054;-88
2023/05/24 03:13:57;;;;;;;12.25;2.30;;;14.30;97.10;;;;;;5056362;28;20158;-87
2023/05/24 03:16:24;;;;;;;9.73;2.72;;;14.30;97.20;;;;;;5057297;28;20546;-88
2023/05/24 03:18:49;;;;;;;7.03;2.22;;;14.20;97.20;;;;;;5056994;28;20025;-87
2023/05/24 03:21:16;;;;;;;6.65;2.10;;;14.20;97.10;;;;;;5056605;28;20381;-87
2023/05/24 03:23:42;;;;;;;8.05;2.15;;;14.20;97.20;;;;;;5054651;28;20040;-87
2023/05/24 03:26:07;;;;;;;9.05;2.42;;;14.10;97.50;;;;;;5055679;28;20029;-87
2023/05/24 03:28:33;;;;;;;9.00;2.25;;;14.10;97.30;;;;;;5055729;28;20458;-87
2023/05/24 03:30:59;;;;;;;5.22;2.10;;;14.10;97.30;;;;;;5055061;28;20466;-87
2023/05/24 03:33:24;;;;;;;9.07;2.20;;;14.10;97.40;;;;;;5054641;28;20025;-89
2023/05/24 03:35:50;;;;;;;12.75;2.42;;;14.10;97.20;;;;;;5055582;28;20116;-87
2023/05/24 03:38:15;;;;;;;5.63;2.08;;;14.10;97.30;;;;;;5055544;28;20032;-87
2023/05/24 03:40:41;;;;;;;6.90;2.60;;;14.10;97.10;;;;;;5054752;28;20078;-87
2023/05/24 03:43:06;;;;;;;8.48;2.08;;;14.10;97.10;;;;;;5056309;28;20347;-87
2023/05/24 03:45:32;;;;;;;6.43;1.88;;;14.10;97.20;;;;;;5055105;28;20029;-86
2023/05/24 03:47:57;;;;;;;5.65;2.33;;;14.10;97.10;;;;;;5055294;28;20035;-87
2023/05/24 03:50:23;;;;;;;7.00;2.03;;;14.10;97.00;;;;;;5056465;28;20025;-87
2023/05/24 03:52:49;;;;;;;6.90;2.30;;;14.10;96.90;;;;;;5054693;28;20051;-89
2023/05/24 03:55:15;;;;;;;11.50;2.60;;;14.10;96.90;;;;;;5054912;28;20047;-89
2023/05/24 03:57:41;;;;;;;9.23;2.00;;;14.10;96.80;;;;;;5055643;28;20040;-89
2023/05/24 04:00:08;;;;;;;7.78;2.17;;;14.20;96.50;;;;;;5056511;28;20021;-88
2023/05/24 04:02:36;;;;;;;8.98;2.15;;;14.10;96.40;;;;;;5054298;28;20071;-87
2023/05/24 04:05:03;;;;;;;7.70;2.30;;;14.10;96.60;;;;;;5055172;28;20040;-88
2023/05/24 04:07:32;;;;;;;10.18;2.53;;;14.10;96.60;;;;;;5055695;28;20052;-89
2023/05/24 04:09:58;;;;;;;6.43;2.17;;;14.10;96.70;;;;;;5056129;28;20016;-88
2023/05/24 04:12:24;;;;;;;9.43;2.00;;;14.20;96.60;;;;;;5054942;28;20354;-87
2023/05/24 04:14:50;;;;;;;9.75;2.40;;;14.10;96.60;;;;;;5054736;28;20027;-87
2023/05/24 04:17:17;;;;;;;9.25;2.28;;;14.10;96.60;;;;;;5054967;28;20032;-88
2023/05/24 04:19:42;;;;;;;7.28;1.90;;;14.10;96.40;;;;;;5054583;28;20462;-88
2023/05/24 04:22:08;;;;;;;7.80;1.52;;;14.10;96.40;;;;;;5055138;28;20036;-87
2023/05/24 04:24:33;;;;;;;7.20;1.88;;;14.00;96.40;;;;;;5054433;28;20075;-88
2023/05/24 04:26:59;;;;;;;8.57;2.10;;;14.00;96.50;;;;;;5054534;28;20032;-89
2023/05/24 04:29:25;;;;;;;7.15;2.85;;;14.00;96.40;;;;;;5054520;28;20036;-88
2023/05/24 04:31:51;;;;;;;9.45;2.58;;;14.00;97.00;;;;;;5055193;28;20036;-88
2023/05/24 04:34:17;;;;;;;11.77;2.35;;;13.90;96.70;;;;;;5054345;28;20032;-88
2023/05/24 04:36:42;;;;;;;6.80;2.00;;;13.90;96.50;;;;;;5054669;28;20128;-88
2023/05/24 04:39:08;;;;;;;8.05;2.28;;;13.90;96.60;;;;;;5054419;28;20029;-88
2023/05/24 04:41:34;;;;;;;10.43;2.47;;;13.90;96.60;;;;;;5054834;28;20493;-89
2023/05/24 04:44:01;;;;;;;6.78;2.20;;;13.90;96.60;;;;;;5054098;28;20051;-88
2023/05/24 04:46:27;;;;;;;11.00;2.40;;;13.90;96.90;;;;;;5053964;28;20040;-89
2023/05/24 04:48:53;;;;;;;8.57;2.28;;;13.90;96.70;;;;;;5054685;28;20029;-88
2023/05/24 04:51:19;;;;;;;6.47;2.00;;;13.80;96.80;;;;;;5054754;28;20024;-86
2023/05/24 04:53:45;;;;;;;6.93;2.10;;;13.90;97.10;;;;;;5055234;28;20033;-89
2023/05/24 04:56:13;;;;;;;6.30;1.83;;;13.80;97.00;;;;;;5053688;28;20462;-89
2023/05/24 04:58:39;;;;;;;10.68;2.30;;;13.80;96.80;;;;;;5054292;28;20033;-89
2023/05/24 05:01:05;;;;;;;7.72;2.30;;;13.80;96.80;;;;;;5054174;28;20056;-88
2023/05/24 05:03:31;;;;;;;7.30;1.98;;;13.80;96.90;;;;;;5053404;28;20029;-86
2023/05/24 05:05:56;;;;;;;9.32;2.00;;;13.80;97.00;;;;;;5054687;28;20086;-87
2023/05/24 05:08:22;;;;;;;7.38;2.10;;;13.90;97.10;;;;;;5054752;28;20382;-87
2023/05/24 05:10:48;;;;;;;8.90;2.05;;;13.90;97.10;;;;;;5053110;28;20031;-87
2023/05/24 05:13:13;;;;;;;11.15;2.28;;;13.80;97.20;;;;;;5053425;28;20036;-87
2023/05/24 05:15:39;;;;;;;9.60;2.88;;;13.90;97.10;;;;;;5052757;28;20029;-89
2023/05/24 05:18:04;;;;;;;10.07;2.50;;;13.80;97.30;;;;;;5053343;28;20064;-90
2023/05/24 05:20:30;;;;;;;9.13;2.25;;;13.80;97.40;;;;;;5053009;28;20025;-88
2023/05/24 05:22:55;;;;;;;7.93;1.98;;;13.90;97.30;;;;;;5054142;28;20090;-90
2023/05/24 05:25:21;;;;;;;5.25;1.80;;;13.90;97.60;;;;;;5054159;28;20033;-90
2023/05/24 05:27:47;;;;;;;10.90;2.22;;;13.90;97.80;;;;;;5052764;28;20488;-86
2023/05/24 05:30:13;;;;;;;8.50;2.15;;;13.90;97.50;;;;;;5070111;28;20025;-87
2023/05/24 05:32:38;;;;;;;8.55;2.13;;;13.90;97.50;;;;;;5053589;28;20104;-87
2023/05/24 05:35:04;;;;;;;6.78;2.45;;;13.90;97.50;;;;;;5052999;28;20033;-87
2023/05/24 05:37:30;;;;;;;7.13;1.80;;;13.90;97.60;;;;;;5053960;28;20067;-86
2023/05/24 05:39:56;;;;;;;6.30;2.10;;;13.90;97.60;;;;;;5054030;28;20029;-86
2023/05/24 05:42:22;;;;;;;6.43;1.85;;;13.90;97.40;;;;;;5071730;28;20070;-89
2023/05/24 05:44:47;;;;;;;4.18;2.30;;;14.00;97.40;;;;;;5073703;28;20080;-88
2023/05/24 05:47:13;;;;;;;7.93;2.42;;;13.90;97.60;;;;;;5072927;28;20060;-89
2023/05/24 05:49:38;;;;;;;10.88;2.30;;;14.00;97.30;;;;;;5072672;28;20062;-88
2023/05/24 05:52:05;;;;;;;5.78;1.90;;;13.90;97.40;;;;;;5073346;28;20490;-87
2023/05/24 05:54:31;;;;;;;7.10;1.80;;;13.90;97.30;;;;;;5072589;28;20032;-88
2023/05/24 05:56:57;;;;;;;9.40;2.25;;;13.80;97.40;;;;;;5072722;28;20043;-86
2023/05/24 05:59:23;;;;;;;6.25;1.73;;;13.80;97.30;;;;;;5073397;28;20466;-86
2023/05/24 06:01:48;;;;;;;9.18;2.05;;;13.80;97.30;;;;;;5060108;28;20053;-85
2023/05/24 06:04:14;;;;;;;7.05;2.05;;;13.80;97.20;;;;;;5052886;28;20032;-86
2023/05/24 06:06:40;;;;;;;9.48;2.28;;;13.80;97.10;;;;;;5053521;28;20104;-86
2023/05/24 06:09:07;;;;;;;13.02;2.45;;;13.70;97.10;;;;;;5036727;28;20052;-86
2023/05/24 06:11:33;;;;;;;11.48;2.35;;;13.70;96.80;;;;;;5066883;28;20047;-88
2023/05/24 06:13:58;;;;;;;14.88;2.63;;;13.70;96.80;;;;;;5077385;28;20039;-86
2023/05/24 06:16:24;;;;;;;14.70;2.70;;;13.70;96.60;;;;;;5077828;28;20025;-86
2023/05/24 06:18:50;;;;;;;7.03;2.47;;;13.80;96.60;;;;;;5076864;28;20033;-86
2023/05/24 06:21:16;;;;;;;6.25;2.10;;;13.80;96.60;;;;;;5077141;28;20096;-86
2023/05/24 06:23:42;;;;;;;11.43;2.58;;;13.90;96.60;;;;;;5077757;28;20029;-84
2023/05/24 06:26:10;;;;;;;8.77;2.40;;;13.80;96.70;;;;;;5076117;28;20032;-85
2023/05/24 06:28:36;;;;;;;11.13;2.50;;;13.90;96.50;;;;;;5068733;28;20025;-88
2023/05/24 06:31:03;;;;;;;8.60;2.20;;;13.90;96.90;;;;;;5069595;28;20032;-85
2023/05/24 06:33:28;;;;;;;13.75;2.55;;;14.00;97.00;;;;;;5070315;28;20062;-86
2023/05/24 06:35:54;;;;;;;8.45;2.10;;;14.00;96.60;;;;;;5075338;28;20063;-86
2023/05/24 06:38:20;;;;;;;9.73;2.33;;;14.00;96.50;;;;;;5076223;28;20020;-87
2023/05/24 06:40:46;;;;;;;8.43;2.33;;;14.00;96.30;;;;;;5075052;28;20476;-87
2023/05/24 06:43:11;;;;;;;10.57;2.30;;;14.10;96.40;;;;;;5092827;28;20024;-87
2023/05/24 06:45:37;;;;;;;8.60;2.90;;;14.10;96.50;;;;;;5076694;28;20524;-88
2023/05/24 06:48:03;;;;;;;9.38;2.45;;;14.10;96.40;;;;;;5077361;28;20020;-85
2023/05/24 06:50:28;;;;;;;11.50;2.08;;;14.10;96.50;;;;;;5066723;28;20067;-87
2023/05/24 06:52:54;;;;;;;10.25;2.38;;;14.20;96.40;;;;;;5070264;28;20663;-86
2023/05/24 06:55:20;;;;;;;9.55;2.40;;;14.30;96.80;;;;;;5059863;28;20037;-88
2023/05/24 06:57:45;;;;;;;7.13;2.30;;;14.30;96.00;;;;;;5075496;28;20435;-87
2023/05/24 07:00:12;;;;;;;6.38;2.03;;;14.30;96.00;;;;;;5075676;28;20112;-86
2023/05/24 07:02:41;;;;;;;12.00;2.90;;;14.40;96.10;;;;;;5075362;28;20048;-89
2023/05/24 07:05:10;;;;;;;11.20;3.20;;;14.40;95.80;;;;;;5076717;28;20033;-86
2023/05/24 07:07:38;;;;;;;8.05;2.33;;;14.30;95.90;;;;;;5066323;28;20021;-87
2023/05/24 07:10:06;;;;;;;11.10;2.22;;;14.20;95.90;;;;;;5060988;28;20037;-85
2023/05/24 07:12:31;;;;;;;8.32;2.40;;;14.40;95.60;;;;;;5065367;28;20021;-86
2023/05/24 07:14:57;;;;;;;9.32;2.15;;;14.40;95.50;;;;;;5063602;28;20021;-86
2023/05/24 07:17:22;;;;;;;9.25;2.55;;;14.40;95.40;;;;;;5067949;28;20024;-87
2023/05/24 07:19:48;;;;;;;8.00;2.05;;;14.50;95.30;;;;;;5067685;28;20060;-88
2023/05/24 07:22:14;;;;;;;8.80;2.10;;;14.60;94.90;;;;;;5065910;28;20017;-88
2023/05/24 07:24:39;;;;;;;9.80;2.10;;;14.60;95.30;;;;;;5060882;28;20033;-88
2023/05/24 07:27:05;;;;;;;5.47;1.88;;;14.60;95.00;;;;;;5064350;28;20044;-87
2023/05/24 07:29:31;;;;;;;12.65;2.15;;;14.50;95.20;;;;;;5067144;28;20047;-85
2023/05/24 07:31:56;;;;;;;8.10;1.80;;;14.40;95.20;;;;;;5064555;28;20025;-86
2023/05/24 07:34:26;;;;;;;10.35;2.00;;;14.20;95.70;;;;;;5060671;28;20028;-88
2023/05/24 07:36:52;;;;;;;15.73;2.45;;;14.20;95.50;;;;;;5055769;28;20024;-89
2023/05/24 07:39:17;;;;;;;7.30;2.05;;;14.10;95.00;;;;;;5072108;28;20081;-86
2023/05/24 07:41:43;;;;;;;7.40;1.60;;;14.00;95.10;;;;;;5068542;28;20040;-94
2023/05/24 07:44:10;;;;;;;6.03;2.60;;;13.90;95.50;;;;;;5068183;28;20061;-85
2023/05/24 07:46:36;;;;;;;7.05;1.95;;;14.00;95.10;;;;;;5055382;28;20078;-81
2023/05/24 07:49:02;;;;;;;9.32;1.80;;;14.00;95.00;;;;;;5069401;28;20111;-80
2023/05/24 07:51:27;;;;;;;9.25;1.98;;;14.00;95.40;;;;;;5063697;28;20040;-81
2023/05/24 07:53:53;;;;;;;7.35;2.05;;;14.20;95.40;;;;;;5064722;28;20035;-81
2023/05/24 07:56:20;;;;;;;10.93;2.17;;;14.30;95.30;;;;;;5055809;28;20029;-85
2023/05/24 07:58:45;;;;;;;9.02;1.60;;;14.30;95.50;;;;;;5060357;28;20116;-87
2023/05/24 08:01:12;;;;;;;9.02;2.00;;;14.40;94.10;;;;;;5072514;28;20067;-82
2023/05/24 08:03:38;;;;;;;14.52;1.80;;;14.60;93.60;;;;;;5066031;28;20024;-83
2023/05/24 08:06:04;;;;;;;10.13;1.80;;;14.70;92.80;;;;;;5059783;28;20044;-82
2023/05/24 08:08:29;;;;;;;12.48;1.98;;;14.70;91.90;;;;;;5063624;28;20032;-82
2023/05/24 08:10:55;;;;;;;6.32;1.90;;;14.70;91.70;;;;;;5073072;28;20567;-86
2023/05/24 08:13:21;;;;;;;9.65;2.03;;;14.60;92.50;;;;;;5054830;28;20437;-86
2023/05/24 08:15:47;;;;;;;8.98;1.73;;;14.60;92.50;;;;;;5085270;28;20474;-85
2023/05/24 08:18:12;;;;;;;6.88;1.92;;;14.50;91.90;;;;;;5075485;28;20060;-84
2023/05/24 08:20:39;;;;;;;8.70;1.65;;;14.40;92.50;;;;;;5073801;28;20032;-86
2023/05/24 08:23:05;;;;;;;4.45;1.67;;;14.40;92.40;;;;;;5059929;28;20025;-86
2023/05/24 08:25:30;;;;;;;9.75;1.50;;;14.40;92.80;;;;;;5073102;28;20086;-86
2023/05/24 08:27:56;;;;;;;9.07;2.33;;;14.40;91.90;;;;;;5074358;28;20028;-84
2023/05/24 08:30:22;;;;;;;11.07;2.03;;;14.40;91.80;;;;;;5053909;28;20371;-87
2023/05/24 08:32:47;;;;;;;8.85;1.83;;;14.40;92.00;;;;;;5067319;28;20021;-87
2023/05/24 08:35:13;;;;;;;8.10;1.60;;;14.60;91.50;;;;;;5074083;28;20024;-85
2023/05/24 08:37:39;;;;;;;9.07;1.92;;;14.70;91.30;;;;;;5074658;28;20103;-83
2023/05/24 08:40:06;;;;;;;10.02;1.42;;;14.80;91.80;;;;;;5090977;28;20048;-84
2023/05/24 08:42:36;;;;;;;8.10;1.70;;;14.90;91.50;;;;;;5069635;28;20021;-82
2023/05/24 08:45:08;;;;;;;10.13;1.95;;;15.00;91.20;;;;;;5058798;28;20108;-80
2023/05/24 08:47:35;;;;;;;4.63;1.33;;;15.00;91.00;;;;;;5085472;28;20024;-77
2023/05/24 08:50:02;;;;;;;8.85;1.92;;;15.00;90.90;;;;;;5063356;28;20091;-76
2023/05/24 08:52:30;;;;;;;8.10;1.80;;;15.10;91.30;;;;;;5074039;28;20028;-79
2023/05/24 08:54:58;;;;;;;8.40;1.75;;;15.10;91.10;;;;;;5066563;28;20149;-79
2023/05/24 08:57:26;;;;;;;5.57;1.73;;;15.10;90.30;;;;;;5067708;28;20025;-84
2023/05/24 08:59:54;;;;;;;5.97;1.40;;;15.10;89.30;;;;;;5054305;28;20029;-81
2023/05/24 09:02:21;;;;;;;6.68;1.85;;;15.20;89.10;;;;;;5072231;28;20052;-83
2023/05/24 09:04:49;;;;;;;4.35;1.52;;;15.10;87.40;;;;;;5082610;28;20078;-83
2023/05/24 09:07:17;;;;;;;7.60;1.80;;;15.10;87.80;;;;;;5069296;28;20029;-84
2023/05/24 09:09:48;;;;;;;11.32;2.13;;;15.10;88.40;;;;;;5058621;28;20029;-82
2023/05/24 09:12:14;;;;;;;;;;;14.90;89.50;;;;;;5066647;28;20032;-83
2023/05/24 09:14:48;;;;;;;9.13;1.75;;;14.90;88.10;;;;;;5072441;28;19904;-82
2023/05/24 09:17:14;;;;;;;7.07;1.85;;;14.90;88.10;;;;;;5073992;28;20044;-81
2023/05/24 09:19:44;;;;;;;9.77;1.67;;;14.90;88.50;;;;;;5052630;28;20167;-81
2023/05/24 09:22:15;;;;;;;5.47;1.48;;;14.90;88.10;;;;;;5053937;28;20055;-82
2023/05/24 09:24:46;;;;;;;4.57;1.30;;;14.90;88.50;;;;;;5052081;28;20033;-80
2023/05/24 09:27:20;;;;;;;4.78;1.55;;;14.90;89.00;;;;;;5062973;28;20115;-80
2023/05/24 09:29:47;;;;;;;5.40;1.77;;;14.90;88.20;;;;;;5072737;28;20028;-80
2023/05/24 09:32:14;;;;;;;9.77;1.70;;;14.80;86.40;;;;;;5072930;28;20024;-80
2023/05/24 09:34:41;;;;;;;5.97;1.40;;;14.80;87.50;;;;;;5073404;28;20029;-82
2023/05/24 09:37:15;;;;;;;5.65;1.45;;;14.80;85.80;;;;;;5072429;28;20032;-79
2023/05/24 09:39:46;;;;;;;8.63;2.00;;;14.90;86.30;;;;;;5058376;28;20039;-84
2023/05/24 09:42:26;;;;;;;8.85;1.60;;;15.00;87.60;;;;;;5065864;28;20125;-81
2023/05/24 09:45:09;;;;;;;6.00;1.52;;;15.00;84.20;;;;;;5064734;28;20103;-80
2023/05/24 09:47:43;;;;;;;3.22;1.40;;;15.00;85.20;;;;;;5052706;28;20033;-81
2023/05/24 09:50:14;;;;;;;8.93;1.75;;;15.10;83.30;;;;;;5056074;28;20027;-81
2023/05/24 09:52:40;;;;;;;8.73;1.58;;;15.00;82.30;;;;;;5063885;28;20488;-82
2023/05/24 09:55:16;;;;;;;7.32;1.83;;;15.00;80.20;;;;;;5072503;28;20099;-82
2023/05/24 09:58:10;;;;;;;6.97;1.70;;;15.00;81.60;;;;;;5073292;28;20039;-79
2023/05/24 10:00:39;;;;;;;6.90;1.50;;;15.00;82.00;;;;;;5049251;28;20120;-84
2023/05/24 10:03:07;;;;;;;9.15;1.50;;;15.00;82.80;;;;;;5072380;28;20053;-84
2023/05/24 10:05:34;;;;;;;5.55;1.75;;;15.00;83.70;;;;;;5060965;28;20049;-82
2023/05/24 10:08:00;;;;;;;7.40;1.75;;;15.00;83.10;;;;;;5052614;28;20041;-86
2023/05/24 10:10:30;;;;;;;8.88;1.58;;;15.00;82.40;;;;;;5089832;28;20029;-80
2023/05/24 10:12:56;;;;;;;11.18;1.48;;;15.00;83.00;;;;;;5081323;28;20034;-80
2023/05/24 10:15:22;;;;;;;10.25;1.63;;;15.10;82.70;;;;;;5060882;28;20033;-79
2023/05/24 10:17:48;;;;;;;7.05;1.95;;;15.10;81.40;;;;;;5053604;28;20032;-80
2023/05/24 10:20:14;;;;;;;7.82;1.65;;;15.10;80.60;;;;;;5053667;28;20021;-80
2023/05/24 10:22:44;;;;;;;8.90;1.80;;;15.00;79.20;;;;;;5052259;28;20033;-83
2023/05/24 10:25:16;;;;;;;5.90;1.75;;;15.00;79.80;;;;;;5053799;28;20466;-79
2023/05/24 10:27:44;;;;;;;7.25;1.60;;;15.10;78.60;;;;;;5059797;28;20040;-82
2023/05/24 10:30:41;;;;;;;8.68;1.92;;;15.10;77.60;;;;;;5071844;28;20024;-81
2023/05/24 10:33:08;;;;;;;6.80;1.50;;;15.20;77.90;;;;;;5072709;28;20032;-81
2023/05/24 10:35:36;;;;;;;5.10;1.48;;;15.20;77.90;;;;;;5064800;28;20037;-82
2023/05/24 10:38:06;;;;;;;5.65;1.45;;;15.30;77.40;;;;;;5073303;28;20028;-82
2023/05/24 10:40:33;;;;;;;7.38;1.42;;;15.30;78.60;;;;;;5073326;28;20021;-82
2023/05/24 10:43:02;;;;;;;5.22;1.63;;;15.40;75.60;;;;;;5072194;28;20037;-81
2023/05/24 10:45:27;;;;;;;6.07;1.42;;;15.30;74.50;;;;;;5072165;28;20033;-82
2023/05/24 10:47:55;;;;;;;8.20;1.65;;;15.30;75.00;;;;;;5071850;28;20032;-82
2023/05/24 10:50:21;;;;;;;6.05;1.35;;;15.40;76.40;;;;;;5072446;28;20032;-82
2023/05/24 10:52:49;;;;;;;5.50;1.65;;;15.40;77.80;;;;;;5072949;28;20036;-82
2023/05/24 10:55:17;;;;;;;6.95;1.92;;;15.50;78.20;;;;;;5071974;28;20033;-81
2023/05/24 10:57:44;;;;;;;4.03;1.48;;;15.50;77.60;;;;;;5072410;28;20024;-82
2023/05/24 11:00:19;;;;;;;9.13;1.80;;;15.50;78.60;;;;;;5075482;28;20503;-82
2023/05/24 11:02:48;;;;;;;6.65;1.77;;;15.50;79.50;;;;;;5076717;28;20040;-82
2023/05/24 11:05:14;;;;;;;5.10;1.38;;;15.60;79.40;;;;;;5075797;28;20024;-81
2023/05/24 11:07:41;;;;;;;4.55;1.42;;;15.70;79.30;;;;;;5075615;28;20052;-82
2023/05/24 11:10:28;;;;;;;5.07;1.65;;;15.70;79.00;;;;;;5075643;28;20029;-82
2023/05/24 11:13:00;;;;;;;9.05;2.63;;;15.80;79.40;;;;;;5076128;28;20174;-82
2023/05/24 11:15:25;;;;;;;;;;;15.80;78.30;;;;;;5075720;28;20478;-82
2023/05/24 11:18:12;;;;;;;10.00;1.67;;;15.90;81.30;;;;;;5075159;28;20009;-82
2023/05/24 11:20:48;;;;;;;7.20;1.52;;;15.90;78.50;;;;;;5075721;28;20035;-81
2023/05/24 11:23:15;;;;;;;7.00;2.00;;;16.00;78.30;;;;;;5076560;28;20035;-82
2023/05/24 11:25:41;;;;;;;11.05;1.98;;;16.10;79.20;;;;;;5074946;28;20043;-82
2023/05/24 11:28:11;;;;;;;7.00;1.90;;;16.20;80.00;;;;;;5075243;28;20469;-82
2023/05/24 11:30:45;;;;;;;8.55;1.65;;;16.30;79.10;;;;;;5075124;28;20024;-82
2023/05/24 11:33:18;;;;;;;5.75;1.70;;;16.40;79.20;;;;;;5076178;28;20081;-82
2023/05/24 11:35:45;;;;;;;7.35;1.55;;;16.40;79.10;;;;;;5074885;28;20025;-82
2023/05/24 11:38:15;;;;;;;11.50;1.98;;;16.40;80.20;;;;;;5075310;28;20039;-81
2023/05/24 11:40:44;;;;;;;6.45;1.80;;;16.50;79.80;;;;;;5075000;28;20421;-82
2023/05/24 11:43:11;;;;;;;10.73;1.42;;;16.50;77.60;;;;;;5074868;28;20366;-82
2023/05/24 11:45:38;;;;;;;5.72;1.70;;;16.50;77.90;;;;;;5076270;28;20111;-82
2023/05/24 11:48:05;;;;;;;4.32;1.60;;;16.60;77.30;;;;;;5074603;28;20035;-82
2023/05/24 11:50:31;;;;;;;7.38;1.60;;;16.50;78.10;;;;;;5074746;28;20047;-82
2023/05/24 11:53:03;;;;;;;4.18;1.30;;;16.50;78.80;;;;;;5075578;28;20029;-82
2023/05/24 11:55:29;;;;;;;7.45;1.67;;;16.60;79.70;;;;;;5075654;28;20511;-82
2023/05/24 11:58:00;;;;;;;7.22;1.77;;;16.60;77.80;;;;;;5091555;28;20028;-82
2023/05/24 12:00:26;;;;;;;6.45;1.50;;;16.70;78.70;;;;;;5074891;28;20020;-82
2023/05/24 12:02:55;;;;;;;6.38;2.10;;;16.70;78.50;;;;;;5091111;28;20048;-82
2023/05/24 12:05:21;;;;;;;7.82;2.30;;;16.80;79.20;;;;;;5074686;28;20028;-82
2023/05/24 12:07:50;;;;;;;7.07;1.92;;;16.80;78.30;;;;;;5075223;28;20031;-82
2023/05/24 12:10:15;;;;;;;10.75;2.25;;;16.90;78.60;;;;;;5074184;28;20025;-82
2023/05/24 12:12:43;;;;;;;13.55;2.38;;;17.00;77.70;;;;;;5075588;28;20505;-82
2023/05/24 12:15:10;;;;;;;10.73;1.77;;;17.00;77.90;;;;;;5075208;28;20067;-81
2023/05/24 12:17:36;;;;;;;8.60;1.80;;;17.10;78.20;;;;;;5091297;28;20024;-81
2023/05/24 12:20:02;;;;;;;8.93;2.00;;;17.20;77.70;;;;;;5073749;28;20021;-82
2023/05/24 12:22:30;;;;;;;6.53;1.95;;;17.30;76.30;;;;;;5074071;28;20031;-81
2023/05/24 12:24:57;;;;;;;4.65;1.67;;;17.30;75.40;;;;;;5073446;28;20052;-82
2023/05/24 12:27:30;;;;;;;6.65;2.17;;;17.40;75.30;;;;;;5075313;28;20058;-81
2023/05/24 12:29:56;;;;;;;9.00;1.83;;;17.60;80.20;;;;;;5073654;28;20376;-81
2023/05/24 12:32:22;;;;;;;8.38;1.67;;;17.70;76.20;;;;;;5074172;28;20042;-82
2023/05/24 12:34:49;;;;;;;7.03;2.60;;;17.80;74.30;;;;;;5073321;28;20115;-82
2023/05/24 12:37:17;;;;;;;5.90;1.85;;;17.90;74.80;;;;;;5073704;28;20183;-82
2023/05/24 12:39:43;;;;;;;7.20;2.03;;;18.00;74.70;;;;;;5073702;28;20060;-80
2023/05/24 12:42:11;;;;;;;5.68;1.52;;;18.10;75.80;;;;;;5090135;28;20070;-81
2023/05/24 12:44:37;;;;;;;9.50;2.08;;;18.30;75.40;;;;;;5073718;28;20121;-81
2023/05/24 12:47:05;;;;;;;6.63;1.60;;;18.40;73.70;;;;;;5073256;28;20032;-81